createdAt,value
2022-12-31T00:01:19.577Z,8.43
2022-12-31T00:03:45.945Z,8.13
2022-12-31T00:06:12.923Z,7.83
2022-12-31T00:08:39.239Z,7.78
2022-12-31T00:11:05.521Z,7.71
2022-12-31T00:13:31.818Z,7.69
2022-12-31T00:16:12.036Z,7.58
2022-12-31T00:18:38.825Z,7.44
2022-12-31T00:21:06.097Z,7.43
2022-12-31T00:23:32.388Z,7.56
2022-12-31T00:26:02.140Z,7.93
2022-12-31T00:28:29.016Z,8.22
2022-12-31T00:30:55.321Z,8.46
2022-12-31T00:33:21.625Z,8.60
2022-12-31T00:35:47.905Z,8.78
2022-12-31T00:38:14.206Z,8.91
2022-12-31T00:40:40.502Z,8.95
2022-12-31T00:43:06.797Z,8.99
2022-12-31T00:45:33.058Z,9.10
2022-12-31T00:47:59.324Z,9.16
2022-12-31T00:50:25.619Z,9.15
2022-12-31T00:52:51.943Z,9.23
2022-12-31T00:55:18.234Z,9.20
2022-12-31T00:57:44.551Z,9.15
2022-12-31T01:00:11.172Z,8.99
2022-12-31T01:02:37.607Z,8.67
2022-12-31T01:05:04.126Z,8.80
2022-12-31T01:07:30.403Z,9.08
2022-12-31T01:09:56.712Z,9.20
2022-12-31T01:12:24.086Z,8.91
2022-12-31T01:14:50.382Z,8.87
2022-12-31T01:17:17.228Z,8.83
2022-12-31T01:19:43.522Z,8.78
2022-12-31T01:22:09.935Z,8.62
2022-12-31T01:24:36.222Z,8.54
2022-12-31T01:27:02.498Z,8.28
2022-12-31T01:29:29.555Z,8.02
2022-12-31T01:31:55.853Z,8.04
2022-12-31T01:34:22.120Z,8.32
2022-12-31T01:36:48.449Z,8.49
2022-12-31T01:39:14.728Z,8.72
2022-12-31T01:41:42.899Z,8.36
2022-12-31T01:44:12.200Z,8.66
2022-12-31T01:46:54.738Z,8.82
2022-12-31T01:49:40.942Z,8.98
2022-12-31T01:52:07.172Z,9.08
2022-12-31T01:54:33.961Z,9.17
2022-12-31T01:57:00.236Z,9.19
2022-12-31T01:59:26.641Z,9.21
2022-12-31T02:01:52.995Z,9.10
2022-12-31T02:04:19.296Z,9.19
2022-12-31T02:06:50.075Z,9.07
2022-12-31T02:09:16.365Z,8.96
2022-12-31T02:11:42.658Z,8.93
2022-12-31T02:14:13.481Z,8.91
2022-12-31T02:16:58.690Z,9.10
2022-12-31T02:19:32.479Z,9.17
2022-12-31T02:22:08.695Z,9.23
2022-12-31T02:25:00.408Z,9.34
2022-12-31T02:27:26.683Z,9.23
2022-12-31T02:29:52.887Z,9.23
2022-12-31T02:32:24.708Z,8.86
2022-12-31T02:34:52.303Z,8.65
2022-12-31T02:37:18.581Z,8.92
2022-12-31T02:39:44.902Z,9.09
2022-12-31T02:42:11.208Z,9.10
2022-12-31T02:44:37.951Z,9.20
2022-12-31T02:47:33.898Z,9.13
2022-12-31T02:50:03.363Z,8.90
2022-12-31T02:52:38.730Z,8.86
2022-12-31T02:55:09.154Z,9.04
2022-12-31T02:57:40.210Z,9.19
2022-12-31T03:00:26.345Z,9.29
2022-12-31T03:02:52.741Z,9.43
2022-12-31T03:05:21.154Z,9.47
2022-12-31T03:07:47.435Z,9.34
2022-12-31T03:10:13.771Z,9.28
2022-12-31T03:12:46.620Z,9.33
2022-12-31T03:15:20.455Z,9.39
2022-12-31T03:17:50.538Z,9.49
2022-12-31T03:20:35.246Z,9.61
2022-12-31T03:23:01.782Z,9.63
2022-12-31T03:25:40.076Z,9.56
2022-12-31T03:28:11.127Z,9.63
2022-12-31T03:30:38.017Z,9.69
2022-12-31T03:33:04.626Z,9.55
2022-12-31T03:35:31.443Z,9.40
2022-12-31T03:37:57.820Z,9.59
2022-12-31T03:40:24.868Z,9.69
2022-12-31T03:42:51.166Z,9.80
2022-12-31T03:45:17.546Z,9.85
2022-12-31T03:47:43.918Z,9.84
2022-12-31T03:50:10.550Z,9.75
2022-12-31T03:52:36.864Z,9.72
2022-12-31T03:55:03.273Z,9.52
2022-12-31T03:57:29.605Z,9.25
2022-12-31T03:59:55.898Z,9.31
2022-12-31T04:02:28.329Z,9.49
2022-12-31T04:04:55.463Z,9.53
2022-12-31T04:07:21.782Z,9.54
2022-12-31T04:09:48.086Z,9.58
2022-12-31T04:12:14.369Z,9.36
2022-12-31T04:14:40.767Z,8.99
2022-12-31T04:17:07.048Z,9.04
2022-12-31T04:19:33.335Z,9.14
2022-12-31T04:21:59.634Z,9.29
2022-12-31T04:24:25.923Z,9.32
2022-12-31T04:26:52.219Z,9.43
2022-12-31T04:29:18.660Z,9.21
2022-12-31T04:31:45.007Z,9.36
2022-12-31T04:34:11.482Z,9.29
2022-12-31T04:36:37.793Z,9.45
2022-12-31T04:39:04.072Z,9.22
2022-12-31T04:41:30.442Z,9.49
2022-12-31T04:43:57.132Z,9.59
2022-12-31T04:46:24.925Z,9.74
2022-12-31T04:48:51.232Z,9.82
2022-12-31T04:51:17.535Z,9.84
2022-12-31T04:53:43.822Z,9.76
2022-12-31T04:56:10.147Z,9.73
2022-12-31T04:58:36.479Z,9.82
2022-12-31T05:01:02.964Z,9.88
2022-12-31T05:03:29.323Z,9.92
2022-12-31T05:05:59.751Z,9.98
2022-12-31T05:08:26.026Z,9.89
2022-12-31T05:10:52.319Z,9.66
2022-12-31T05:13:18.624Z,9.32
2022-12-31T05:15:45.697Z,9.30
2022-12-31T05:18:12.077Z,9.36
2022-12-31T05:20:38.359Z,9.52
2022-12-31T05:23:04.653Z,9.57
2022-12-31T05:25:31.048Z,9.58
2022-12-31T05:27:57.338Z,9.79
2022-12-31T05:30:23.766Z,9.68
2022-12-31T05:32:50.055Z,9.52
2022-12-31T05:35:16.351Z,9.72
2022-12-31T05:37:42.787Z,9.93
2022-12-31T05:40:09.401Z,10.00
2022-12-31T05:42:35.707Z,10.18
2022-12-31T05:45:01.984Z,10.31
2022-12-31T05:47:28.256Z,10.34
2022-12-31T05:49:54.537Z,10.23
2022-12-31T05:52:20.842Z,10.23
2022-12-31T05:54:47.139Z,10.13
2022-12-31T05:57:13.436Z,10.18
2022-12-31T05:59:39.719Z,10.26
2022-12-31T06:02:05.995Z,10.30
2022-12-31T06:04:32.294Z,10.37
2022-12-31T06:06:58.702Z,10.25
2022-12-31T06:09:24.987Z,10.23
2022-12-31T06:11:51.259Z,10.18
2022-12-31T06:14:17.618Z,10.19
2022-12-31T06:16:43.890Z,10.25
2022-12-31T06:19:10.183Z,10.32
2022-12-31T06:21:36.488Z,10.35
2022-12-31T06:24:02.743Z,10.45
2022-12-31T06:26:29.045Z,10.39
2022-12-31T06:28:55.320Z,10.41
2022-12-31T06:31:21.614Z,10.48
2022-12-31T06:33:47.971Z,10.38
2022-12-31T06:36:14.918Z,10.46
2022-12-31T06:38:41.648Z,10.54
2022-12-31T06:41:08.669Z,10.54
2022-12-31T06:43:34.954Z,10.64
2022-12-31T06:46:01.639Z,10.57
2022-12-31T06:48:27.956Z,10.48
2022-12-31T06:50:54.234Z,10.49
2022-12-31T06:53:20.544Z,10.59
2022-12-31T06:55:48.008Z,10.58
2022-12-31T06:58:14.464Z,10.55
2022-12-31T07:00:48.655Z,10.36
2022-12-31T07:03:18.040Z,9.82
2022-12-31T07:05:47.487Z,10.04
2022-12-31T07:08:13.726Z,10.24
2022-12-31T07:10:59.780Z,10.12
2022-12-31T07:13:44.677Z,10.17
2022-12-31T07:16:10.944Z,9.98
2022-12-31T07:18:40.225Z,9.72
2022-12-31T07:21:10.332Z,9.69
2022-12-31T07:23:36.632Z,9.73
2022-12-31T07:26:06.151Z,9.63
2022-12-31T07:28:41.320Z,9.81
2022-12-31T07:31:10.288Z,10.04
2022-12-31T07:33:51.610Z,9.88
2022-12-31T07:36:36.701Z,9.82
2022-12-31T07:39:05.638Z,9.89
2022-12-31T07:41:41.005Z,9.96
2022-12-31T07:44:09.840Z,9.99
2022-12-31T07:46:54.907Z,10.21
2022-12-31T07:49:21.389Z,10.39
2022-12-31T07:51:47.745Z,10.40
2022-12-31T07:54:14.549Z,10.44
2022-12-31T07:56:41.158Z,10.44
2022-12-31T07:59:26.231Z,10.40
2022-12-31T08:02:01.858Z,10.48
2022-12-31T08:04:34.202Z,10.53
2022-12-31T08:07:09.596Z,10.67
2022-12-31T08:09:39.522Z,10.67
2022-12-31T08:12:06.768Z,10.63
2022-12-31T08:14:33.026Z,10.55
2022-12-31T08:16:59.383Z,10.59
2022-12-31T08:19:30.530Z,10.61
2022-12-31T08:22:15.349Z,10.60
2022-12-31T08:24:59.386Z,10.71
2022-12-31T08:27:34.725Z,10.80
2022-12-31T08:30:10.652Z,10.61
2022-12-31T08:32:45.060Z,10.31
2022-12-31T08:35:14.707Z,10.06
2022-12-31T08:37:53.193Z,10.17
2022-12-31T08:40:24.199Z,10.20
2022-12-31T08:42:57.004Z,10.38
2022-12-31T08:45:28.532Z,10.48
2022-12-31T08:48:00.873Z,10.45
2022-12-31T08:50:27.265Z,10.36
2022-12-31T08:52:53.790Z,10.57
2022-12-31T08:55:21.031Z,10.64
2022-12-31T08:58:02.830Z,10.76
2022-12-31T09:00:29.152Z,10.97
2022-12-31T09:03:01.627Z,11.03
2022-12-31T09:05:30.882Z,10.97
2022-12-31T09:08:15.526Z,10.86
2022-12-31T09:10:44.894Z,10.58
2022-12-31T09:13:16.235Z,10.61
2022-12-31T09:15:43.847Z,10.78
2022-12-31T09:18:10.190Z,10.96
2022-12-31T09:20:44.732Z,11.21
2022-12-31T09:23:12.184Z,11.28
2022-12-31T09:26:01.970Z,11.38
2022-12-31T09:28:35.075Z,11.42
2022-12-31T09:31:21.649Z,11.34
2022-12-31T09:33:55.606Z,11.38
2022-12-31T09:36:32.385Z,11.48
2022-12-31T09:39:12.728Z,11.54
2022-12-31T09:41:57.723Z,11.58
2022-12-31T09:44:42.934Z,11.65
2022-12-31T09:47:28.139Z,11.64
2022-12-31T09:50:11.077Z,11.55
2022-12-31T09:52:56.065Z,11.40
2022-12-31T09:55:40.018Z,11.57
2022-12-31T09:58:18.248Z,11.70
2022-12-31T10:00:48.155Z,11.85
2022-12-31T10:03:23.596Z,11.96
2022-12-31T10:05:57.065Z,11.86
2022-12-31T10:08:32.367Z,11.86
2022-12-31T10:10:59.441Z,11.97
2022-12-31T10:13:40.836Z,12.07
2022-12-31T10:16:25.957Z,12.11
2022-12-31T10:18:55.056Z,12.12
2022-12-31T10:21:40.215Z,12.06
2022-12-31T10:24:25.295Z,12.10
2022-12-31T10:27:10.453Z,12.15
2022-12-31T10:29:49.489Z,12.01
2022-12-31T10:32:15.734Z,11.95
2022-12-31T10:34:41.980Z,12.00
2022-12-31T10:37:10.343Z,11.91
2022-12-31T10:39:58.911Z,11.90
2022-12-31T10:42:40.476Z,12.06
2022-12-31T10:45:16.870Z,12.22
2022-12-31T10:47:43.074Z,12.42
2022-12-31T10:50:15.991Z,12.55
2022-12-31T10:52:42.423Z,12.58
2022-12-31T10:55:27.562Z,12.54
2022-12-31T10:58:12.551Z,12.67
2022-12-31T11:00:50.929Z,12.75
2022-12-31T11:03:35.650Z,12.79
2022-12-31T11:06:20.627Z,12.62
2022-12-31T11:08:49.908Z,12.69
2022-12-31T11:11:33.958Z,12.75
2022-12-31T11:14:00.204Z,12.81
2022-12-31T11:16:26.598Z,12.84
2022-12-31T11:18:58.924Z,12.87
2022-12-31T11:21:44.259Z,12.87
2022-12-31T11:24:10.477Z,12.92
2022-12-31T11:26:54.135Z,12.97
2022-12-31T11:29:39.408Z,12.94
2022-12-31T11:32:05.654Z,13.02
2022-12-31T11:34:38.103Z,13.04
2022-12-31T11:37:04.327Z,13.07
2022-12-31T11:39:43.425Z,13.13
2022-12-31T11:42:14.371Z,13.19
2022-12-31T11:44:49.534Z,13.13
2022-12-31T11:47:28.368Z,13.06
2022-12-31T11:50:15.304Z,13.00
2022-12-31T11:52:47.788Z,12.99
2022-12-31T11:55:32.869Z,12.85
2022-12-31T11:57:59.622Z,12.95
2022-12-31T12:00:26.501Z,13.08
2022-12-31T12:02:54.052Z,13.19
2022-12-31T12:05:21.385Z,13.27
2022-12-31T12:07:48.213Z,13.35
2022-12-31T12:10:17.623Z,13.12
2022-12-31T12:12:43.924Z,13.01
2022-12-31T12:15:10.694Z,13.07
2022-12-31T12:17:37.040Z,13.20
2022-12-31T12:20:04.678Z,13.31
2022-12-31T12:22:31.594Z,13.34
2022-12-31T12:25:15.892Z,13.39
2022-12-31T12:27:42.208Z,13.42
2022-12-31T12:30:09.602Z,13.44
2022-12-31T12:32:35.890Z,13.46
2022-12-31T12:35:12.318Z,13.48
2022-12-31T12:37:38.614Z,13.32
2022-12-31T12:40:18.408Z,13.24
2022-12-31T12:42:51.441Z,13.27
2022-12-31T12:45:18.887Z,13.35
2022-12-31T12:47:45.914Z,13.45
2022-12-31T12:50:18.997Z,13.56
2022-12-31T12:52:49.303Z,13.50
2022-12-31T12:55:17.099Z,13.54
2022-12-31T12:57:49.318Z,13.65
2022-12-31T13:00:15.589Z,13.67
2022-12-31T13:02:41.912Z,13.70
2022-12-31T13:05:11.290Z,13.76
2022-12-31T13:07:57.877Z,13.73
2022-12-31T13:10:43.138Z,13.53
2022-12-31T13:13:25.711Z,13.74
2022-12-31T13:16:01.207Z,13.88
2022-12-31T13:18:46.373Z,13.89
2022-12-31T13:21:24.165Z,13.83
2022-12-31T13:23:53.586Z,13.89
2022-12-31T13:26:31.798Z,13.90
2022-12-31T13:28:58.076Z,13.89
2022-12-31T13:31:34.326Z,13.88
2022-12-31T13:34:27.090Z,13.91
2022-12-31T13:36:53.908Z,13.87
2022-12-31T13:39:20.978Z,13.87
2022-12-31T13:42:09.083Z,13.88
2022-12-31T13:44:36.439Z,13.87
2022-12-31T13:47:22.930Z,13.77
2022-12-31T13:49:55.291Z,13.56
2022-12-31T13:52:27.640Z,13.45
2022-12-31T13:55:03.808Z,13.64
2022-12-31T13:57:36.119Z,13.72
2022-12-31T14:00:03.682Z,13.57
2022-12-31T14:02:35.825Z,13.53
2022-12-31T14:05:11.245Z,13.66
2022-12-31T14:07:45.290Z,13.73
2022-12-31T14:10:13.384Z,13.77
2022-12-31T14:12:41.561Z,13.75
2022-12-31T14:15:24.157Z,13.76
2022-12-31T14:17:59.496Z,13.60
2022-12-31T14:20:25.743Z,13.48
2022-12-31T14:22:51.943Z,13.40
2022-12-31T14:25:22.784Z,13.40
2022-12-31T14:27:49.122Z,13.50
2022-12-31T14:30:19.717Z,13.60
2022-12-31T14:33:04.769Z,13.71
2022-12-31T14:35:35.035Z,13.72
2022-12-31T14:38:20.200Z,13.77
2022-12-31T14:41:04.732Z,13.79
2022-12-31T14:43:44.717Z,13.78
2022-12-31T14:46:32.844Z,13.79
2022-12-31T14:49:02.568Z,13.72
2022-12-31T14:51:31.837Z,13.76
2022-12-31T14:53:58.269Z,13.75
2022-12-31T14:56:29.062Z,13.73
2022-12-31T14:58:56.300Z,13.76
2022-12-31T15:01:25.854Z,13.66
2022-12-31T15:03:53.014Z,13.72
2022-12-31T15:06:32.434Z,13.45
2022-12-31T15:09:17.462Z,13.43
2022-12-31T15:12:16.156Z,13.57
2022-12-31T15:14:45.318Z,13.62
2022-12-31T15:17:23.808Z,13.55
2022-12-31T15:19:53.074Z,13.43
2022-12-31T15:22:22.512Z,13.32
2022-12-31T15:24:48.851Z,13.18
2022-12-31T15:27:27.424Z,13.03
2022-12-31T15:29:53.720Z,13.00
2022-12-31T15:32:20.684Z,13.06
2022-12-31T15:34:46.958Z,12.97
2022-12-31T15:37:28.327Z,12.78
2022-12-31T15:40:03.884Z,12.86
2022-12-31T15:42:49.482Z,12.83
2022-12-31T15:45:24.359Z,12.82
2022-12-31T15:47:52.929Z,12.89
2022-12-31T15:50:20.177Z,12.85
2022-12-31T15:52:50.552Z,12.88
2022-12-31T15:55:20.153Z,12.90
2022-12-31T15:57:46.469Z,12.79
2022-12-31T16:00:17.177Z,12.55
2022-12-31T16:02:43.537Z,12.60
2022-12-31T16:05:30.142Z,12.72
2022-12-31T16:07:57.637Z,12.35
2022-12-31T16:10:27.305Z,12.34
2022-12-31T16:12:54.228Z,12.30
2022-12-31T16:15:21.559Z,12.20
2022-12-31T16:17:56.876Z,12.13
2022-12-31T16:20:24.039Z,12.10
2022-12-31T16:22:50.933Z,12.11
2022-12-31T16:25:30.652Z,12.08
2022-12-31T16:27:57.737Z,12.18
2022-12-31T16:30:30.660Z,12.21
2022-12-31T16:33:00.774Z,12.21
2022-12-31T16:35:27.078Z,12.24
2022-12-31T16:38:03.631Z,12.36
2022-12-31T16:40:29.948Z,12.31
2022-12-31T16:42:56.260Z,12.33
2022-12-31T16:45:32.854Z,12.18
2022-12-31T16:48:00.894Z,12.08
2022-12-31T16:50:27.161Z,12.05
2022-12-31T16:53:00.274Z,11.91
2022-12-31T16:55:27.221Z,11.87
2022-12-31T16:57:55.709Z,11.93
2022-12-31T17:00:22.029Z,12.03
2022-12-31T17:03:03.525Z,12.07
2022-12-31T17:05:29.910Z,11.99
2022-12-31T17:07:56.234Z,12.00
2022-12-31T17:10:23.464Z,11.83
2022-12-31T17:15:43.232Z,11.78
2022-12-31T17:18:13.618Z,11.74
2022-12-31T17:20:39.906Z,11.90
2022-12-31T17:23:07.217Z,11.75
2022-12-31T17:25:34.026Z,11.68
2022-12-31T17:28:00.871Z,11.83
2022-12-31T17:30:30.241Z,11.96
2022-12-31T17:32:59.946Z,12.05
2022-12-31T17:35:26.838Z,12.10
2022-12-31T17:37:53.143Z,11.83
2022-12-31T17:40:50.998Z,11.73
2022-12-31T17:43:18.006Z,11.79
2022-12-31T17:45:44.431Z,11.76
2022-12-31T17:48:11.779Z,11.86
2022-12-31T17:50:45.751Z,12.04
2022-12-31T17:53:12.093Z,12.02
2022-12-31T17:55:38.510Z,11.81
2022-12-31T17:58:05.073Z,11.75
2022-12-31T18:00:33.085Z,11.59
2022-12-31T18:02:59.883Z,11.67
2022-12-31T18:05:26.268Z,11.88
2022-12-31T18:07:52.679Z,12.00
2022-12-31T18:10:19.743Z,12.08
2022-12-31T18:12:46.509Z,12.15
2022-12-31T18:15:16.574Z,12.14
2022-12-31T18:17:42.870Z,12.01
2022-12-31T18:20:09.440Z,11.93
2022-12-31T18:22:35.845Z,11.96
2022-12-31T18:25:02.202Z,11.89
2022-12-31T18:27:30.542Z,11.96
2022-12-31T18:30:04.089Z,12.11
2022-12-31T18:32:34.232Z,12.20
2022-12-31T18:35:01.835Z,12.32
2022-12-31T18:37:28.198Z,12.18
2022-12-31T18:39:54.471Z,11.95
2022-12-31T18:42:20.765Z,11.97
2022-12-31T18:44:47.050Z,11.94
2022-12-31T18:47:13.953Z,12.00
2022-12-31T18:49:40.543Z,12.10
2022-12-31T18:52:06.923Z,12.18
2022-12-31T18:54:33.240Z,12.23
2022-12-31T18:56:59.578Z,12.19
2022-12-31T18:59:25.898Z,12.23
2022-12-31T19:01:52.318Z,12.30
2022-12-31T19:04:27.570Z,12.22
2022-12-31T19:06:54.696Z,11.93
2022-12-31T19:09:43.871Z,11.84
2022-12-31T19:12:09.108Z,11.70
2022-12-31T19:14:35.391Z,11.68
2022-12-31T19:19:26.913Z,11.73
2022-12-31T19:21:53.212Z,11.74
2022-12-31T19:24:20.343Z,11.80
2022-12-31T19:26:46.615Z,11.76
2022-12-31T19:29:19.856Z,11.78
2022-12-31T19:31:46.321Z,11.76
2022-12-31T19:34:12.653Z,11.63
2022-12-31T19:36:43.859Z,11.55
2022-12-31T19:39:14.329Z,11.49
2022-12-31T19:41:41.718Z,11.43
2022-12-31T19:44:12.011Z,11.49
2022-12-31T19:46:38.295Z,11.43
2022-12-31T19:49:04.578Z,11.59
2022-12-31T19:51:30.868Z,11.65
2022-12-31T19:53:57.155Z,11.66
2022-12-31T19:56:23.445Z,11.76
2022-12-31T19:58:49.719Z,11.75
2022-12-31T20:01:19.996Z,11.76
2022-12-31T20:03:46.522Z,11.73
2022-12-31T20:06:13.429Z,11.64
2022-12-31T20:08:39.843Z,11.54
2022-12-31T20:11:13.363Z,11.57
2022-12-31T20:13:39.921Z,11.55
2022-12-31T20:16:07.111Z,11.58
2022-12-31T20:18:33.491Z,11.49
2022-12-31T20:20:59.778Z,11.36
2022-12-31T20:23:26.060Z,11.23
2022-12-31T20:26:01.431Z,11.14
2022-12-31T20:28:27.712Z,11.10
2022-12-31T20:30:54.153Z,11.06
2022-12-31T20:33:20.582Z,11.11
2022-12-31T20:35:46.997Z,11.22
2022-12-31T20:38:13.322Z,11.19
2022-12-31T20:40:46.161Z,11.27
2022-12-31T20:43:12.892Z,11.39
2022-12-31T20:45:39.767Z,11.51
2022-12-31T20:48:06.043Z,11.57
2022-12-31T20:50:32.326Z,11.41
2022-12-31T20:52:58.672Z,11.32
2022-12-31T20:55:25.191Z,11.24
2022-12-31T20:57:52.535Z,11.15
2022-12-31T21:00:18.957Z,11.06
2022-12-31T21:02:51.506Z,11.05
2022-12-31T21:05:22.988Z,10.95
2022-12-31T21:07:49.336Z,10.83
2022-12-31T21:10:16.941Z,10.75
2022-12-31T21:12:43.427Z,10.90
2022-12-31T21:15:10.674Z,11.11
2022-12-31T21:17:36.975Z,11.26
2022-12-31T21:20:03.433Z,11.28
2022-12-31T21:22:30.022Z,11.18
2022-12-31T21:24:56.326Z,11.20
2022-12-31T21:27:22.617Z,11.27
2022-12-31T21:30:16.891Z,11.25
2022-12-31T21:32:35.159Z,11.17
2022-12-31T21:35:40.415Z,10.92
2022-12-31T21:37:59.009Z,10.82
2022-12-31T21:40:27.342Z,11.00
2022-12-31T21:42:53.616Z,11.02
2022-12-31T21:45:19.908Z,11.08
2022-12-31T21:48:04.565Z,11.19
2022-12-31T21:50:30.835Z,11.18
2022-12-31T21:52:57.172Z,11.12
2022-12-31T21:55:41.944Z,11.04
2022-12-31T22:01:13.428Z,10.96
2022-12-31T22:03:39.864Z,10.82
2022-12-31T22:06:10.455Z,10.77
2022-12-31T22:08:36.762Z,10.66
2022-12-31T22:11:03.044Z,10.66
2022-12-31T22:13:29.415Z,10.84
2022-12-31T22:16:01.779Z,11.00
2022-12-31T22:18:32.126Z,11.03
2022-12-31T22:21:01.956Z,11.21
2022-12-31T22:23:28.683Z,11.28
2022-12-31T22:25:54.975Z,11.23
2022-12-31T22:28:38.244Z,11.08
2022-12-31T22:31:05.309Z,10.89
2022-12-31T22:33:31.610Z,10.78
2022-12-31T22:35:58.635Z,10.79
2022-12-31T22:38:25.467Z,10.88
2022-12-31T22:40:51.838Z,10.94
2022-12-31T22:43:18.138Z,11.01
2022-12-31T22:45:44.431Z,11.07
2022-12-31T22:48:10.939Z,11.13
2022-12-31T22:50:37.251Z,11.19
2022-12-31T22:53:03.551Z,11.18
2022-12-31T22:55:29.871Z,11.06
2022-12-31T22:57:56.163Z,10.97
2022-12-31T23:00:22.462Z,10.99
2022-12-31T23:02:48.821Z,10.97
2022-12-31T23:05:16.483Z,11.08
2022-12-31T23:07:42.981Z,11.06
2022-12-31T23:10:28.003Z,11.01
2022-12-31T23:12:54.289Z,10.96
2022-12-31T23:15:39.192Z,11.05
2022-12-31T23:18:24.069Z,11.15
2022-12-31T23:21:08.826Z,11.01
2022-12-31T23:23:35.159Z,11.01
2022-12-31T23:26:01.854Z,10.94
2022-12-31T23:28:28.152Z,11.04
2022-12-31T23:30:54.476Z,11.17
2022-12-31T23:33:21.663Z,11.28
2022-12-31T23:35:47.977Z,11.24
2022-12-31T23:38:16.485Z,11.15
2022-12-31T23:40:42.866Z,11.09
2022-12-31T23:43:09.364Z,10.95
2022-12-31T23:45:35.958Z,10.99
2022-12-31T23:48:02.290Z,11.11
2022-12-31T23:50:28.565Z,11.24
2022-12-31T23:52:54.875Z,11.32
2022-12-31T23:55:21.220Z,11.29
2022-12-31T23:57:47.517Z,11.32
